Time;durP1;ratioP1;P1;durP2;ratioP2;P2;SDS_P1;SDS_P2;PMS_P1;PMS_P2;Temp;Humidity;BMP_temperature;BMP_pressure;BME280_temperature;BME280_humidity;BME280_pressure;Samples;Min_cycle;Max_cycle;Signal;HPM_P1;HPM_P2
2023/09/20 00:02:36;;;;;;;5.43;2.63;;;;;;;;;;6203576;28;20231;-67
2023/09/20 00:05:39;;;;;;;4.97;2.80;;;;;;;;;;6211546;28;20250;-67
2023/09/20 00:08:40;;;;;;;4.63;2.80;;;;;;;;;;6223648;28;20191;-67
2023/09/20 00:11:43;;;;;;;4.33;2.37;;;;;;;;;;6218612;28;20227;-67
2023/09/20 00:14:44;;;;;;;7.90;3.30;;;;;;;;;;6208892;28;20189;-67
2023/09/20 00:17:45;;;;;;;7.90;3.37;;;;;;;;;;6208179;28;20215;-67
2023/09/20 00:20:46;;;;;;;5.73;3.60;;;;;;;;;;6206074;28;20199;-67
2023/09/20 00:23:47;;;;;;;4.13;3.33;;;;;;;;;;6204675;28;20226;-67
2023/09/20 00:26:48;;;;;;;5.70;3.47;;;;;;;;;;6204411;28;20207;-67
2023/09/20 00:29:49;;;;;;;3.80;3.00;;;;;;;;;;6204082;28;20198;-67
2023/09/20 00:32:50;;;;;;;4.73;2.70;;;;;;;;;;6191348;28;20191;-67
2023/09/20 00:35:51;;;;;;;4.57;2.80;;;;;;;;;;6199336;28;20335;-67
2023/09/20 00:38:53;;;;;;;4.70;3.10;;;;;;;;;;6207023;28;20285;-67
2023/09/20 00:41:54;;;;;;;6.27;3.03;;;;;;;;;;6200326;28;20198;-67
2023/09/20 00:44:55;;;;;;;8.43;2.77;;;;;;;;;;6210546;28;20195;-67
2023/09/20 00:47:58;;;;;;;4.90;3.40;;;;;;;;;;6204156;28;20262;-67
2023/09/20 00:50:59;;;;;;;10.30;3.77;;;;;;;;;;6208639;28;20185;-67
2023/09/20 00:54:04;;;;;;;5.00;3.10;;;;;;;;;;6214623;28;20211;-67
2023/09/20 00:57:07;;;;;;;4.57;2.80;;;;;;;;;;6222678;28;20310;-67
2023/09/20 01:00:19;;;;;;;6.87;3.00;;;;;;;;;;6198615;28;20197;-67
2023/09/20 01:03:21;;;;;;;4.83;3.03;;;;;;;;;;6221668;28;20191;-67
2023/09/20 01:06:23;;;;;;;4.83;2.70;;;;;;;;;;6200166;28;20210;-67
2023/09/20 01:09:25;;;;;;;4.70;2.60;;;;;;;;;;6194669;28;20230;-67
2023/09/20 01:12:26;;;;;;;5.10;2.70;;;;;;;;;;6194005;28;20203;-67
2023/09/20 01:15:27;;;;;;;5.77;2.90;;;;;;;;;;6202849;28;20199;-67
2023/09/20 01:18:28;;;;;;;5.47;2.63;;;;;;;;;;6208984;28;20187;-67
2023/09/20 01:21:30;;;;;;;10.40;3.97;;;;;;;;;;6195108;28;20193;-67
2023/09/20 01:24:34;;;;;;;3.67;2.27;;;;;;;;;;6206198;28;20262;-67
2023/09/20 01:27:37;;;;;;;6.27;3.00;;;;;;;;;;6211693;28;20257;-67
2023/09/20 01:30:39;;;;;;;5.07;3.03;;;;;;;;;;6221838;28;20196;-67
2023/09/20 01:33:41;;;;;;;5.03;3.20;;;;;;;;;;6209233;28;20199;-67
2023/09/20 01:36:42;;;;;;;5.53;3.17;;;;;;;;;;6198234;28;20223;-67
2023/09/20 01:39:43;;;;;;;7.33;3.13;;;;;;;;;;6205930;28;20234;-67
2023/09/20 01:42:48;;;;;;;4.80;3.40;;;;;;;;;;6201909;28;20211;-67
2023/09/20 01:45:49;;;;;;;7.63;2.90;;;;;;;;;;6199380;28;20220;-67
2023/09/20 01:48:50;;;;;;;12.23;3.27;;;;;;;;;;6200691;28;20198;-67
2023/09/20 01:51:52;;;;;;;6.87;2.77;;;;;;;;;;6205001;28;20209;-67
2023/09/20 01:54:57;;;;;;;8.20;3.57;;;;;;;;;;6202308;28;20192;-67
2023/09/20 01:57:59;;;;;;;5.70;3.10;;;;;;;;;;6199605;28;20252;-67
2023/09/20 02:01:00;;;;;;;6.93;3.00;;;;;;;;;;6214411;28;20188;-67
2023/09/20 02:04:02;;;;;;;3.10;2.80;;;;;;;;;;6205922;28;20586;-67
2023/09/20 02:07:03;;;;;;;6.97;3.13;;;;;;;;;;6198316;28;20203;-67
2023/09/20 02:10:07;;;;;;;4.83;3.43;;;;;;;;;;6206290;28;20191;-67
2023/09/20 02:13:08;;;;;;;3.23;2.93;;;;;;;;;;6203689;28;20194;-67
2023/09/20 02:16:11;;;;;;;6.30;3.07;;;;;;;;;;6197337;28;20225;-67
2023/09/20 02:19:13;;;;;;;4.63;2.93;;;;;;;;;;6199217;28;20199;-67
2023/09/20 02:22:14;;;;;;;3.63;2.73;;;;;;;;;;6203914;28;20192;-67
2023/09/20 02:25:20;;;;;;;6.87;3.33;;;;;;;;;;6199674;28;20238;-67
2023/09/20 02:28:21;;;;;;;8.93;3.60;;;;;;;;;;6220042;28;20192;-67
2023/09/20 02:31:22;;;;;;;6.80;3.33;;;;;;;;;;6205334;28;20245;-67
2023/09/20 02:34:23;;;;;;;4.67;2.80;;;;;;;;;;6204167;28;20237;-67
2023/09/20 02:37:24;;;;;;;5.90;3.23;;;;;;;;;;6198790;28;20224;-67
2023/09/20 02:40:28;;;;;;;6.83;3.67;;;;;;;;;;6197720;28;20199;-67
2023/09/20 02:43:30;;;;;;;5.83;3.27;;;;;;;;;;6208352;28;20290;-67
2023/09/20 02:46:31;;;;;;;4.97;3.17;;;;;;;;;;6202613;28;20203;-67
2023/09/20 02:49:33;;;;;;;5.67;3.30;;;;;;;;;;6199016;28;20287;-67
2023/09/20 02:52:34;;;;;;;6.47;3.17;;;;;;;;;;6202197;28;20199;-67
2023/09/20 02:55:35;;;;;;;7.27;3.30;;;;;;;;;;6198322;28;20192;-67
2023/09/20 02:58:37;;;;;;;4.17;2.80;;;;;;;;;;6214615;28;20197;-67
2023/09/20 03:01:38;;;;;;;3.90;3.07;;;;;;;;;;6187059;28;20191;-67
2023/09/20 03:04:39;;;;;;;7.17;3.20;;;;;;;;;;6192451;28;20209;-66
2023/09/20 03:07:42;;;;;;;8.30;3.97;;;;;;;;;;6204162;28;20195;-66
2023/09/20 03:10:43;;;;;;;8.60;3.30;;;;;;;;;;6199849;28;20195;-66
2023/09/20 03:13:44;;;;;;;4.27;3.13;;;;;;;;;;6207103;28;20198;-66
2023/09/20 03:16:45;;;;;;;5.90;2.93;;;;;;;;;;6203362;28;20238;-67
2023/09/20 03:19:46;;;;;;;5.90;3.07;;;;;;;;;;6212054;28;20197;-67
2023/09/20 03:22:48;;;;;;;6.03;3.33;;;;;;;;;;6197540;28;20189;-67
2023/09/20 03:25:49;;;;;;;5.80;3.23;;;;;;;;;;6202750;28;20248;-67
2023/09/20 03:28:56;;;;;;;5.10;2.90;;;;;;;;;;6204764;28;20207;-67
2023/09/20 03:31:58;;;;;;;5.70;3.17;;;;;;;;;;6216313;28;20193;-67
2023/09/20 03:34:59;;;;;;;5.37;3.50;;;;;;;;;;6201536;28;20207;-67
2023/09/20 03:38:01;;;;;;;5.20;3.67;;;;;;;;;;6198440;28;20213;-66
2023/09/20 03:41:04;;;;;;;7.47;2.90;;;;;;;;;;6200253;28;20230;-66
2023/09/20 03:44:07;;;;;;;4.83;3.13;;;;;;;;;;6180378;28;20216;-66
2023/09/20 03:47:08;;;;;;;5.17;3.23;;;;;;;;;;6196826;28;20193;-67
2023/09/20 03:50:09;;;;;;;7.93;3.47;;;;;;;;;;6213093;28;20265;-66
2023/09/20 03:53:10;;;;;;;8.80;3.67;;;;;;;;;;6208162;28;20256;-67
2023/09/20 03:56:11;;;;;;;6.63;3.40;;;;;;;;;;6207952;28;20236;-67
2023/09/20 03:59:12;;;;;;;4.63;3.33;;;;;;;;;;6219054;28;20306;-66
2023/09/20 04:02:14;;;;;;;5.70;3.20;;;;;;;;;;6205419;28;20201;-66
2023/09/20 04:05:16;;;;;;;4.57;3.20;;;;;;;;;;6206627;28;20203;-66
2023/09/20 04:08:18;;;;;;;6.30;2.93;;;;;;;;;;6201807;28;20208;-65
2023/09/20 04:11:20;;;;;;;6.07;3.30;;;;;;;;;;6197920;28;20252;-67
2023/09/20 04:14:23;;;;;;;5.03;2.83;;;;;;;;;;6208596;28;20196;-67
2023/09/20 04:17:27;;;;;;;6.10;2.90;;;;;;;;;;6204297;28;20224;-67
2023/09/20 04:20:29;;;;;;;3.70;2.70;;;;;;;;;;6212165;28;20200;-67
2023/09/20 04:23:32;;;;;;;7.17;3.00;;;;;;;;;;6198495;28;20247;-66
2023/09/20 04:26:33;;;;;;;3.90;3.17;;;;;;;;;;6202308;28;20323;-68
2023/09/20 04:29:35;;;;;;;5.10;3.00;;;;;;;;;;6214728;28;20207;-67
2023/09/20 04:32:38;;;;;;;5.47;3.00;;;;;;;;;;6208957;28;20199;-67
2023/09/20 04:35:40;;;;;;;4.43;3.77;;;;;;;;;;6207991;28;20193;-66
2023/09/20 04:38:41;;;;;;;7.63;3.40;;;;;;;;;;6215333;28;20212;-67
2023/09/20 04:41:42;;;;;;;3.87;2.97;;;;;;;;;;6200649;28;20525;-67
2023/09/20 04:44:43;;;;;;;4.70;3.07;;;;;;;;;;6202622;28;20300;-67
2023/09/20 04:47:44;;;;;;;7.03;3.20;;;;;;;;;;6211595;28;20218;-67
2023/09/20 04:50:49;;;;;;;6.03;3.00;;;;;;;;;;6205196;28;20203;-67
2023/09/20 04:53:50;;;;;;;8.73;3.03;;;;;;;;;;6217674;28;20187;-67
2023/09/20 04:56:51;;;;;;;5.70;3.20;;;;;;;;;;6201339;28;20227;-67
2023/09/20 04:59:52;;;;;;;7.60;3.03;;;;;;;;;;6200621;28;20292;-67
2023/09/20 05:02:54;;;;;;;5.63;3.30;;;;;;;;;;6200261;28;20234;-67
2023/09/20 05:05:55;;;;;;;4.70;2.90;;;;;;;;;;6206065;28;20269;-67
2023/09/20 05:08:56;;;;;;;5.83;2.80;;;;;;;;;;6193033;28;20204;-67
2023/09/20 05:11:57;;;;;;;5.93;3.00;;;;;;;;;;6208111;28;20199;-67
2023/09/20 05:14:58;;;;;;;5.70;3.10;;;;;;;;;;6196418;28;20195;-67
2023/09/20 05:17:59;;;;;;;3.00;2.70;;;;;;;;;;6193133;28;20234;-67
2023/09/20 05:21:00;;;;;;;5.13;2.87;;;;;;;;;;6196617;28;20216;-67
2023/09/20 05:24:01;;;;;;;5.07;2.80;;;;;;;;;;6198981;28;20246;-67
2023/09/20 05:27:02;;;;;;;7.00;3.40;;;;;;;;;;6207630;28;20207;-67
2023/09/20 05:30:04;;;;;;;3.27;2.93;;;;;;;;;;6197529;28;20206;-67
2023/09/20 05:33:05;;;;;;;3.77;2.53;;;;;;;;;;6210091;28;20183;-67
2023/09/20 05:36:07;;;;;;;7.53;3.03;;;;;;;;;;6208813;28;20235;-67
2023/09/20 05:39:08;;;;;;;6.70;3.50;;;;;;;;;;6201018;28;20216;-67
2023/09/20 05:42:09;;;;;;;3.87;2.67;;;;;;;;;;6204531;28;20204;-67
2023/09/20 05:45:10;;;;;;;8.30;3.03;;;;;;;;;;6224963;28;20228;-67
2023/09/20 05:48:12;;;;;;;7.00;3.13;;;;;;;;;;6205898;28;20196;-67
2023/09/20 05:51:14;;;;;;;3.73;2.73;;;;;;;;;;6223882;28;20189;-67
2023/09/20 05:54:15;;;;;;;5.23;2.90;;;;;;;;;;6191406;28;20251;-67
2023/09/20 05:57:19;;;;;;;4.40;2.83;;;;;;;;;;6197007;28;20211;-67
2023/09/20 06:00:22;;;;;;;8.00;3.13;;;;;;;;;;6202689;28;20200;-67
2023/09/20 06:03:23;;;;;;;5.20;2.90;;;;;;;;;;6212382;28;20200;-67
2023/09/20 06:06:25;;;;;;;6.20;3.17;;;;;;;;;;6195287;28;20243;-67
2023/09/20 06:09:26;;;;;;;3.80;2.80;;;;;;;;;;6205119;28;20207;-67
2023/09/20 06:12:27;;;;;;;7.83;3.73;;;;;;;;;;6198698;28;20203;-67
2023/09/20 06:15:28;;;;;;;5.83;3.50;;;;;;;;;;6220783;28;20205;-67
2023/09/20 06:18:29;;;;;;;5.67;2.90;;;;;;;;;;6202673;28;20215;-67
2023/09/20 06:21:31;;;;;;;6.40;3.77;;;;;;;;;;6195703;28;20196;-67
2023/09/20 06:24:32;;;;;;;6.77;3.70;;;;;;;;;;6193500;28;20248;-67
2023/09/20 06:27:33;;;;;;;5.97;4.10;;;;;;;;;;6193551;28;20206;-67
2023/09/20 06:30:35;;;;;;;4.37;3.30;;;;;;;;;;6196632;28;20255;-67
2023/09/20 06:33:36;;;;;;;4.73;3.07;;;;;;;;;;6205620;28;20191;-67
2023/09/20 06:36:37;;;;;;;6.53;3.23;;;;;;;;;;6204814;28;20208;-67
2023/09/20 06:39:38;;;;;;;6.63;3.90;;;;;;;;;;6204881;28;20219;-67
2023/09/20 06:42:39;;;;;;;5.30;3.47;;;;;;;;;;6193420;28;20515;-67
2023/09/20 06:45:49;;;;;;;4.30;3.53;;;;;;;;;;6196298;28;20194;-67
2023/09/20 06:48:50;;;;;;;5.10;3.77;;;;;;;;;;6205734;28;20193;-67
2023/09/20 06:51:52;;;;;;;5.47;3.73;;;;;;;;;;6212773;28;20258;-67
2023/09/20 06:54:53;;;;;;;6.67;3.57;;;;;;;;;;6197635;28;20196;-67
2023/09/20 06:57:54;;;;;;;5.67;3.47;;;;;;;;;;6215452;28;20215;-67
2023/09/20 07:00:55;;;;;;;6.07;3.60;;;;;;;;;;6196804;28;20330;-67
2023/09/20 07:03:56;;;;;;;7.20;3.63;;;;;;;;;;6208701;28;20199;-67
2023/09/20 07:06:58;;;;;;;8.40;3.80;;;;;;;;;;6206442;28;20289;-67
2023/09/20 07:10:00;;;;;;;5.97;3.23;;;;;;;;;;6197412;28;20199;-67
2023/09/20 07:13:05;;;;;;;5.80;4.13;;;;;;;;;;6192132;28;20232;-67
2023/09/20 07:16:06;;;;;;;6.07;3.50;;;;;;;;;;6197785;28;20306;-67
2023/09/20 07:19:11;;;;;;;4.43;3.40;;;;;;;;;;6197566;28;20223;-67
2023/09/20 07:22:12;;;;;;;3.63;3.07;;;;;;;;;;6211373;28;20207;-67
2023/09/20 07:25:17;;;;;;;9.33;3.20;;;;;;;;;;6200865;28;20231;-67
2023/09/20 07:28:19;;;;;;;4.93;3.10;;;;;;;;;;6215762;28;20202;-67
2023/09/20 07:31:20;;;;;;;5.07;3.47;;;;;;;;;;6206519;28;20199;-67
2023/09/20 07:34:23;;;;;;;6.10;3.70;;;;;;;;;;6207492;28;20281;-67
2023/09/20 07:37:25;;;;;;;6.40;3.60;;;;;;;;;;6197150;28;20242;-67
2023/09/20 07:40:30;;;;;;;5.10;3.40;;;;;;;;;;6196790;28;20191;-67
2023/09/20 07:43:31;;;;;;;8.13;3.83;;;;;;;;;;6237334;28;20180;-67
2023/09/20 07:46:35;;;;;;;6.97;3.87;;;;;;;;;;6197310;28;20191;-67
2023/09/20 07:49:36;;;;;;;6.00;3.57;;;;;;;;;;6193454;28;20198;-67
2023/09/20 07:52:37;;;;;;;6.00;3.27;;;;;;;;;;6203289;28;20242;-67
2023/09/20 07:55:41;;;;;;;4.37;3.30;;;;;;;;;;6215355;28;20195;-67
2023/09/20 07:58:44;;;;;;;5.70;3.23;;;;;;;;;;6211142;28;20203;-67
2023/09/20 08:01:45;;;;;;;4.83;3.43;;;;;;;;;;6195107;28;20204;-67
2023/09/20 08:04:46;;;;;;;4.40;3.20;;;;;;;;;;6199481;28;20296;-67
2023/09/20 08:07:47;;;;;;;6.83;3.63;;;;;;;;;;6205490;28;20194;-67
2023/09/20 08:10:48;;;;;;;3.60;3.13;;;;;;;;;;6203157;28;20225;-67
2023/09/20 08:13:50;;;;;;;5.10;3.53;;;;;;;;;;6192401;28;20247;-67
2023/09/20 08:20:11;;;;;;;4.60;3.57;;;;;;;;;;6205844;28;20204;-67
2023/09/20 08:59:54;;;;;;;4.57;3.00;;;;;;;;;;6209408;28;20193;-67
2023/09/20 09:02:57;;;;;;;4.73;2.73;;;;;;;;;;6222965;28;20289;-67
2023/09/20 09:06:01;;;;;;;4.23;2.30;;;;;;;;;;6211783;28;20187;-67
2023/09/20 09:09:02;;;;;;;3.03;2.10;;;;;;;;;;6194519;28;20257;-67
2023/09/20 09:12:03;;;;;;;4.33;2.43;;;;;;;;;;6202017;28;20203;-67
2023/09/20 09:15:06;;;;;;;3.27;2.27;;;;;;;;;;6196545;28;20254;-67
2023/09/20 09:18:13;;;;;;;3.07;2.23;;;;;;;;;;6222597;28;20221;-67
2023/09/20 09:21:17;;;;;;;2.63;2.43;;;;;;;;;;6202240;28;20188;-67
2023/09/20 09:24:18;;;;;;;2.27;2.07;;;;;;;;;;6197314;28;20278;-67
2023/09/20 09:27:19;;;;;;;2.40;2.20;;;;;;;;;;6209200;28;20294;-67
2023/09/20 09:30:21;;;;;;;3.37;2.40;;;;;;;;;;6203349;28;20229;-67
2023/09/20 09:33:23;;;;;;;2.80;1.90;;;;;;;;;;6200747;28;20219;-67
2023/09/20 09:36:25;;;;;;;2.73;2.37;;;;;;;;;;6212436;28;20218;-67
2023/09/20 09:39:26;;;;;;;3.37;2.30;;;;;;;;;;6211657;28;20222;-67
2023/09/20 09:42:28;;;;;;;4.33;2.20;;;18.60;87.60;;;;;;6211217;28;20192;-67
2023/09/20 09:45:33;;;;;;;5.30;2.87;;;18.70;83.30;;;;;;6200404;28;20203;-67
2023/09/20 09:48:38;;;;;;;4.43;2.57;;;18.80;83.30;;;;;;6218524;28;20222;-67
2023/09/20 09:51:45;;;;;;;2.67;2.47;;;18.90;83.10;;;;;;6218213;28;20196;-67
2023/09/20 09:54:47;;;;;;;2.47;2.27;;;18.90;84.40;;;;;;6186004;28;20211;-67
2023/09/20 09:57:49;;;;;;;4.50;2.87;;;18.90;82.20;;;;;;6207366;28;20227;-67
2023/09/20 10:00:53;;;;;;;2.40;2.10;;;18.90;82.40;;;;;;6187895;28;20203;-67
2023/09/20 10:03:56;;;;;;;4.80;2.80;;;19.00;82.70;;;;;;6221032;28;20230;-67
2023/09/20 10:06:56;;;;;;;2.30;2.10;;;19.10;82.20;;;;;;6218279;28;20196;-67
2023/09/20 10:10:12;;;;;;;3.40;2.20;;;19.10;82.70;;;;;;6217895;28;20191;-67
2023/09/20 10:13:14;;;;;;;2.73;2.03;;;;;;;;;;6193858;28;20196;-67
2023/09/20 10:16:16;;;;;;;2.90;2.07;;;;;;;;;;6226278;28;20246;-67
2023/09/20 10:19:18;;;;;;;3.83;1.90;;;;;;;;;;6198921;28;20188;-67
2023/09/20 10:22:25;;;;;;;2.23;2.03;;;;;;;;;;6206336;28;20199;-67
2023/09/20 10:25:32;;;;;;;5.63;1.73;;;;;;;;;;6229010;28;20236;-67
2023/09/20 10:28:39;;;;;;;3.10;2.17;;;;;;;;;;6198194;28;20196;-67
2023/09/20 10:31:40;;;;;;;2.67;2.27;;;;;;;;;;6206340;28;20270;-67
2023/09/20 10:35:02;;;;;;;4.07;2.60;;;;;;;;;;6216812;28;20206;-67
2023/09/20 10:38:17;;;;;;;2.20;2.00;;;;;;;;;;6203478;28;20219;-67
2023/09/20 10:41:18;;;;;;;2.47;2.10;;;;;;;;;;6202593;28;20253;-67
2023/09/20 10:44:30;;;;;;;3.17;2.30;;;;;;;;;;6197888;28;20195;-67
2023/09/20 10:47:32;;;;;;;3.47;2.57;;;;;;;;;;6205459;28;20191;-67
2023/09/20 10:50:47;;;;;;;2.60;1.97;;;;;;;;;;6189875;28;20287;-67
2023/09/20 10:53:48;;;;;;;3.87;2.10;;;;;;;;;;6202832;28;20223;-67
2023/09/20 10:56:50;;;;;;;3.20;2.33;;;;;;;;;;6217812;28;20242;-67
2023/09/20 10:59:53;;;;;;;2.50;2.30;;;;;;;;;;6213574;28;20221;-67
2023/09/20 11:02:56;;;;;;;3.63;2.20;;;;;;;;;;6213748;28;20195;-67
2023/09/20 11:05:58;;;;;;;4.13;2.03;;;;;;;;;;6200960;28;20196;-67
2023/09/20 11:08:59;;;;;;;4.23;2.50;;;;;;;;;;6205324;28;20186;-67
2023/09/20 11:12:09;;;;;;;4.17;2.07;;;;;;;;;;6219270;28;20198;-67
2023/09/20 11:15:10;;;;;;;4.07;2.73;;;;;;;;;;6202015;28;20192;-67
2023/09/20 11:18:15;;;;;;;2.37;1.97;;;;;;;;;;6220125;28;20246;-67
2023/09/20 11:21:19;;;;;;;3.73;2.20;;;;;;;;;;6214991;28;20194;-67
2023/09/20 11:24:20;;;;;;;2.23;2.03;;;;;;;;;;6200544;28;20231;-67
2023/09/20 11:27:21;;;;;;;3.17;2.50;;;;;;;;;;6205277;28;20210;-67
2023/09/20 11:30:27;;;;;;;2.77;2.33;;;;;;;;;;6207181;28;20254;-67
2023/09/20 11:33:28;;;;;;;3.30;2.27;;;19.20;81.40;;;;;;6208039;28;20192;-68
2023/09/20 11:36:41;;;;;;;5.07;2.40;;;22.00;71.30;;;;;;6202462;28;20213;-68
2023/09/20 11:39:43;;;;;;;6.03;2.60;;;21.90;72.30;;;;;;6212902;28;20245;-67
2023/09/20 11:42:45;;;;;;;2.53;1.77;;;22.10;71.60;;;;;;6189308;28;20203;-67
2023/09/20 11:45:47;;;;;;;2.90;2.27;;;;;;;;;;6235596;28;20199;-67
2023/09/20 11:48:51;;;;;;;4.73;2.40;;;;;;;;;;6204271;28;20246;-68
2023/09/20 11:51:54;;;;;;;4.00;2.10;;;;;;;;;;6204826;28;20200;-68
2023/09/20 11:54:56;;;;;;;3.27;2.23;;;24.00;50.00;;;;;;6198066;28;20200;-68
2023/09/20 11:58:00;;;;;;;2.73;2.00;;;22.90;65.10;;;;;;6219871;28;20276;-68
2023/09/20 12:01:04;;;;;;;3.80;1.83;;;;;;;;;;6221557;28;20284;-68
2023/09/20 12:04:05;;;;;;;3.40;2.20;;;23.10;67.70;;;;;;6204468;28;20246;-68
2023/09/20 12:07:07;;;;;;;2.73;2.10;;;;;;;;;;6184564;28;20231;-68
2023/09/20 12:10:08;;;;;;;2.80;2.10;;;;;;;;;;6222400;28;20191;-69
2023/09/20 12:13:09;;;;;;;3.00;1.97;;;;;;;;;;6202332;28;20195;-68
2023/09/20 12:16:11;;;;;;;3.57;2.10;;;;;;;;;;6205488;28;20188;-68
2023/09/20 12:19:12;;;;;;;4.03;2.17;;;;;;;;;;6215237;28;20195;-65
2023/09/20 12:22:13;;;;;;;3.80;2.00;;;;;;;;;;6202422;28;20195;-65
2023/09/20 12:25:16;;;;;;;5.83;2.33;;;;;;;;;;6203656;28;20251;-64
2023/09/20 12:28:17;;;;;;;2.40;1.70;;;34.70;45.40;;;;;;6206868;28;20199;-64
2023/09/20 12:31:23;;;;;;;2.17;1.60;;;36.00;42.80;;;;;;6178963;28;20199;-64
2023/09/20 12:34:24;;;;;;;5.82;2.30;;;37.10;39.90;;;;;;6194910;28;20295;-64
2023/09/20 12:37:24;;;;;;;5.65;2.30;;;37.20;38.90;;;;;;6193022;28;20215;-64
2023/09/20 12:40:27;;;;;;;2.33;1.73;;;37.50;40.00;;;;;;6187971;28;20211;-64
2023/09/20 12:43:28;;;;;;;3.17;1.90;;;36.90;42.30;;;;;;6208016;28;20200;-64
2023/09/20 12:46:31;;;;;;;1.77;1.63;;;35.90;41.60;;;;;;6183276;28;20218;-64
2023/09/20 12:49:32;;;;;;;3.00;1.90;;;;;;;;;;6201675;28;20200;-64
2023/09/20 12:52:33;;;;;;;2.57;1.80;;;34.40;43.70;;;;;;6208975;28;20314;-64
2023/09/20 12:55:37;;;;;;;2.97;1.90;;;;;;;;;;6203113;28;20199;-64
2023/09/20 12:58:41;;;;;;;4.17;2.30;;;30.20;47.90;;;;;;6211760;28;20269;-64
2023/09/20 13:01:41;;;;;;;3.83;2.27;;;29.80;48.50;;;;;;6227621;28;20187;-64
2023/09/20 13:04:42;;;;;;;3.70;2.33;;;;;;;;;;6201461;28;20241;-64
2023/09/20 13:07:44;;;;;;;2.33;2.10;;;;;;;;;;6206348;28;20201;-64
2023/09/20 13:10:45;;;;;;;3.77;2.40;;;;;;;;;;6200998;28;20202;-64
2023/09/20 13:13:47;;;;;;;5.13;2.43;;;;;;;;;;6217981;28;20197;-64
2023/09/20 13:16:49;;;;;;;4.37;2.43;;;29.40;50.50;;;;;;6225096;28;20230;-63
2023/09/20 13:19:50;;;;;;;2.10;1.75;;;;;;;;;;6192284;28;20203;-64
2023/09/20 13:22:56;;;;;;;3.15;2.00;;;34.70;41.10;;;;;;6208111;28;20221;-64
2023/09/20 13:25:57;;;;;;;4.20;2.47;;;37.30;39.60;;;;;;6225900;28;20235;-64
2023/09/20 13:28:58;;;;;;;3.17;2.08;;;;;;;;;;6214247;28;20183;-64
2023/09/20 13:31:59;;;;;;;4.57;2.35;;;;;;;;;;6198033;28;20187;-65
2023/09/20 13:35:02;;;;;;;3.13;1.80;;;38.90;37.80;;;;;;6201282;28;20199;-66
2023/09/20 13:38:04;;;;;;;3.83;2.05;;;32.70;37.30;;;;;;6203565;28;20583;-66
2023/09/20 13:41:05;;;;;;;4.25;2.63;;;;;;;;;;6190315;28;20194;-66
2023/09/20 13:44:08;;;;;;;3.58;2.22;;;;;;;;;;6208118;28;20187;-66
2023/09/20 13:47:09;;;;;;;4.47;2.40;;;;;;;;;;6195929;28;20195;-66
2023/09/20 13:50:13;;;;;;;4.40;2.43;;;;;;;;;;6220639;28;20191;-66
2023/09/20 13:53:14;;;;;;;3.23;2.23;;;;;;;;;;6225943;28;20187;-66
2023/09/20 13:56:19;;;;;;;4.40;2.53;;;;;;;;;;6217327;28;20187;-66
2023/09/20 13:59:20;;;;;;;3.87;2.53;;;;;;;;;;6225795;28;20202;-65
2023/09/20 14:02:22;;;;;;;3.30;2.67;;;;;;;;;;6223242;28;20210;-65
2023/09/20 14:05:23;;;;;;;4.50;2.10;;;33.00;44.00;;;;;;6222117;28;20269;-65
2023/09/20 14:08:24;;;;;;;5.83;2.40;;;31.40;47.90;;;;;;6192306;28;20235;-65
2023/09/20 14:11:25;;;;;;;4.83;2.70;;;;;;;;;;6194099;28;20198;-65
2023/09/20 14:14:27;;;;;;;3.87;2.63;;;;;;;;;;6216188;28;20199;-65
2023/09/20 14:17:30;;;;;;;4.43;2.50;;;;;;;;;;6203584;28;20226;-66
2023/09/20 14:20:31;;;;;;;5.23;2.70;;;32.50;47.00;;;;;;6216708;28;20202;-64
2023/09/20 14:23:33;;;;;;;8.93;3.30;;;;;;;;;;6196514;28;20192;-64
2023/09/20 14:26:38;;;;;;;4.37;2.80;;;;;;;;;;6213389;28;20274;-65
2023/09/20 14:29:39;;;;;;;5.03;3.23;;;;;;;;;;6211545;28;20199;-64
2023/09/20 14:32:40;;;;;;;6.23;2.50;;;28.60;53.70;;;;;;6206502;28;20195;-65
2023/09/20 14:35:41;;;;;;;8.13;3.20;;;;;;;;;;6202774;28;20211;-65
2023/09/20 14:38:42;;;;;;;4.50;2.87;;;27.90;56.20;;;;;;6206849;28;20231;-67
2023/09/20 14:41:44;;;;;;;8.60;3.07;;;;;;;;;;6206837;28;20195;-67
2023/09/20 14:44:45;;;;;;;5.67;3.00;;;26.80;59.30;;;;;;6215566;28;20196;-67
2023/09/20 14:47:45;;;;;;;4.53;2.97;;;26.20;60.70;;;;;;6190779;28;20222;-67
2023/09/20 14:50:46;;;;;;;4.77;3.03;;;26.00;62.50;;;;;;6193392;28;20202;-67
2023/09/20 14:53:47;;;;;;;5.10;3.10;;;26.00;62.20;;;;;;6187549;28;20230;-67
2023/09/20 14:56:47;;;;;;;5.40;3.10;;;26.00;62.50;;;;;;6200733;28;20251;-67
2023/09/20 14:59:52;;;;;;;4.63;3.20;;;26.00;63.40;;;;;;6227350;28;20218;-67
2023/09/20 15:02:55;;;;;;;5.40;3.23;;;26.30;63.00;;;;;;6209115;28;20211;-67
2023/09/20 15:05:56;;;;;;;4.47;2.90;;;26.40;63.00;;;;;;6216400;28;20195;-67
2023/09/20 15:08:57;;;;;;;5.70;3.10;;;26.30;62.90;;;;;;6182643;28;20188;-67
2023/09/20 15:11:58;;;;;;;4.13;3.50;;;26.20;63.70;;;;;;6212637;28;20295;-67
2023/09/20 15:14:59;;;;;;;4.27;3.37;;;26.20;63.60;;;;;;6198346;28;20285;-67
2023/09/20 15:18:00;;;;;;;5.27;3.20;;;26.40;62.80;;;;;;6229363;28;20225;-67
2023/09/20 15:21:07;;;;;;;5.87;3.00;;;26.60;63.30;;;;;;6231564;28;20226;-67
2023/09/20 15:24:08;;;;;;;7.40;3.40;;;27.10;60.50;;;;;;6203378;28;20285;-67
2023/09/20 15:27:10;;;;;;;6.40;2.90;;;27.50;57.70;;;;;;6183880;28;20210;-67
2023/09/20 15:30:12;;;;;;;9.13;3.43;;;27.60;58.50;;;;;;6228718;28;20237;-67
2023/09/20 15:33:18;;;;;;;10.27;3.17;;;27.50;59.00;;;;;;6203770;28;20194;-67
2023/09/20 15:36:20;;;;;;;5.03;3.00;;;27.20;60.50;;;;;;6193999;28;20188;-67
2023/09/20 15:39:21;;;;;;;5.23;3.10;;;27.00;60.60;;;;;;6178792;28;20210;-67
2023/09/20 15:42:22;;;;;;;5.50;3.17;;;;;;;;;;6222209;28;20188;-67
2023/09/20 15:45:23;;;;;;;7.27;3.37;;;26.60;61.40;;;;;;6222488;28;20188;-67
2023/09/20 15:48:24;;;;;;;5.20;2.90;;;26.00;64.00;;;;;;6208117;28;20204;-67
2023/09/20 15:51:25;;;;;;;4.63;3.00;;;25.80;64.70;;;;;;6208064;28;20200;-67
2023/09/20 15:54:26;;;;;;;4.70;3.00;;;25.50;66.60;;;;;;6229328;28;20241;-67
2023/09/20 15:57:27;;;;;;;3.87;2.73;;;25.30;66.60;;;;;;6208338;28;20208;-67
2023/09/20 16:00:28;;;;;;;7.43;3.33;;;25.20;67.40;;;;;;6210383;28;20262;-67
2023/09/20 16:03:32;;;;;;;7.07;3.03;;;;;;;;;;6202849;28;20253;-67
2023/09/20 16:06:34;;;;;;;5.33;3.17;;;;;;;;;;6208802;28;20196;-67
2023/09/20 16:09:35;;;;;;;5.90;3.07;;;25.00;66.50;;;;;;6210032;28;20210;-67
2023/09/20 16:12:35;;;;;;;5.23;2.80;;;24.70;67.80;;;;;;6209911;28;20291;-67
2023/09/20 16:15:37;;;;;;;6.07;3.20;;;;;;;;;;6187682;28;20198;-67
2023/09/20 16:18:38;;;;;;;4.63;3.37;;;;;;;;;;6218430;28;20211;-67
2023/09/20 16:21:40;;;;;;;7.17;3.27;;;;;;;;;;6211085;28;20293;-67
2023/09/20 16:24:41;;;;;;;4.33;3.27;;;;;;;;;;6225750;28;20265;-67
2023/09/20 16:27:44;;;;;;;5.87;2.93;;;;;;;;;;6202733;28;20219;-67
2023/09/20 16:30:46;;;;;;;4.80;3.03;;;;;;;;;;6206485;28;20275;-67
2023/09/20 16:33:48;;;;;;;5.63;3.63;;;;;;;;;;6219221;28;20192;-67
2023/09/20 16:36:49;;;;;;;6.30;3.70;;;;;;;;;;6222089;28;20204;-67
2023/09/20 16:39:51;;;;;;;5.57;3.37;;;;;;;;;;6210165;28;20187;-67
2023/09/20 16:42:52;;;;;;;5.00;3.50;;;;;;;;;;6213292;28;20199;-67
2023/09/20 16:45:54;;;;;;;5.53;3.67;;;;;;;;;;6206805;28;20219;-67
2023/09/20 16:48:56;;;;;;;4.97;3.37;;;;;;;;;;6206159;28;20282;-67
2023/09/20 16:51:59;;;;;;;8.40;3.80;;;;;;;;;;6208444;28;20187;-67
2023/09/20 16:55:00;;;;;;;6.53;3.10;;;;;;;;;;6215229;28;20192;-67
2023/09/20 16:58:01;;;;;;;4.20;3.63;;;;;;;;;;6228147;28;20317;-67
2023/09/20 17:01:03;;;;;;;5.37;3.57;;;;;;;;;;6208037;28;20206;-67
2023/09/20 17:04:04;;;;;;;7.03;3.43;;;;;;;;;;6197358;28;20278;-66
2023/09/20 17:07:06;;;;;;;5.43;2.97;;;;;;;;;;6205687;28;20196;-66
2023/09/20 17:10:07;;;;;;;5.70;3.20;;;;;;;;;;6204820;28;20194;-67
2023/09/20 17:13:10;;;;;;;7.83;3.70;;;;;;;;;;6203739;28;20199;-67
2023/09/20 17:16:11;;;;;;;6.60;3.43;;;;;;;;;;6195290;28;20198;-65
2023/09/20 17:19:13;;;;;;;7.70;3.63;;;;;;;;;;6207469;28;20204;-67
2023/09/20 17:22:14;;;;;;;6.80;3.80;;;;;;;;;;6204929;28;20271;-65
2023/09/20 17:25:15;;;;;;;7.20;3.97;;;;;;;;;;6212802;28;20242;-65
2023/09/20 17:28:16;;;;;;;7.17;3.40;;;;;;;;;;6205040;28;20253;-66
2023/09/20 17:31:18;;;;;;;7.30;4.30;;;24.60;68.90;;;;;;6211773;28;20338;-66
2023/09/20 17:34:18;;;;;;;4.00;3.17;;;21.10;81.50;;;;;;6217030;28;20191;-67
2023/09/20 17:37:20;;;;;;;4.13;3.70;;;20.80;81.30;;;;;;6214021;28;20220;-67
2023/09/20 17:40:25;;;;;;;5.60;3.70;;;20.70;82.10;;;;;;6223682;28;20290;-66
2023/09/20 17:43:28;;;;;;;5.77;4.00;;;20.60;82.20;;;;;;6205052;28;20192;-66
2023/09/20 17:46:30;;;;;;;7.63;4.37;;;20.50;82.70;;;;;;6191110;28;20307;-66
2023/09/20 17:49:31;;;;;;;6.60;4.20;;;20.50;82.70;;;;;;6199510;28;20266;-66
2023/09/20 17:52:32;;;;;;;7.00;3.43;;;20.50;82.70;;;;;;6202139;28;20199;-66
2023/09/20 17:55:35;;;;;;;6.20;4.07;;;20.40;83.00;;;;;;6221682;28;20194;-65
2023/09/20 17:58:37;;;;;;;7.50;4.60;;;20.30;83.20;;;;;;6204795;28;20261;-66
2023/09/20 18:01:41;;;;;;;9.40;4.70;;;20.30;83.30;;;;;;6217368;28;20199;-66
2023/09/20 18:04:44;;;;;;;7.13;4.37;;;20.30;83.60;;;;;;6208852;28;20257;-67
2023/09/20 18:07:45;;;;;;;6.10;4.00;;;20.20;83.70;;;;;;6218778;28;20227;-67
2023/09/20 18:10:49;;;;;;;7.60;4.67;;;20.10;83.90;;;;;;6174125;28;20197;-67
2023/09/20 18:13:50;;;;;;;6.90;4.50;;;20.10;84.40;;;;;;6224880;28;20199;-67
2023/09/20 18:16:51;;;;;;;5.53;4.33;;;20.00;84.60;;;;;;6223670;28;20218;-67